sensor_id;sensor_type;location;lat;lon;timestamp;temperature;humidity
75113;DHT22;63692;47.338;8.520;2024-02-26T05:15:09;6.90;99.90
75113;DHT22;63692;47.338;8.520;2024-02-26T05:37:53;6.60;99.90
75113;DHT22;63692;47.338;8.520;2024-02-26T05:40:19;6.60;99.90
75113;DHT22;63692;47.338;8.520;2024-02-26T06:20:57;6.40;99.90
75113;DHT22;63692;47.338;8.520;2024-02-26T06:23:23;6.40;99.90
75113;DHT22;63692;47.338;8.520;2024-02-26T06:25:49;6.40;99.90
75113;DHT22;63692;47.338;8.520;2024-02-26T06:40:41;6.60;99.90
75113;DHT22;63692;47.338;8.520;2024-02-26T06:43:06;6.60;99.90
75113;DHT22;63692;47.338;8.520;2024-02-26T06:57:51;6.50;99.90
75113;DHT22;63692;47.338;8.520;2024-02-26T07:00:17;6.50;99.90
75113;DHT22;63692;47.338;8.520;2024-02-26T07:02:43;6.50;99.90
75113;DHT22;63692;47.338;8.520;2024-02-26T07:05:09;6.50;99.90
75113;DHT22;63692;47.338;8.520;2024-02-26T07:07:35;6.40;99.90
75113;DHT22;63692;47.338;8.520;2024-02-26T07:10:01;6.40;99.90
75113;DHT22;63692;47.338;8.520;2024-02-26T07:12:29;6.40;99.90
75113;DHT22;63692;47.338;8.520;2024-02-26T07:14:55;6.30;99.90
75113;DHT22;63692;47.338;8.520;2024-02-26T07:17:21;6.30;99.90
75113;DHT22;63692;47.338;8.520;2024-02-26T07:19:46;6.30;99.90
75113;DHT22;63692;47.338;8.520;2024-02-26T07:22:12;6.30;99.90
75113;DHT22;63692;47.338;8.520;2024-02-26T07:24:37;6.40;99.90
75113;DHT22;63692;47.338;8.520;2024-02-26T07:27:03;6.30;99.90
75113;DHT22;63692;47.338;8.520;2024-02-26T07:29:29;6.30;99.90
75113;DHT22;63692;47.338;8.520;2024-02-26T07:31:55;6.30;99.90
75113;DHT22;63692;47.338;8.520;2024-02-26T07:34:20;6.20;99.90
75113;DHT22;63692;47.338;8.520;2024-02-26T07:36:53;6.30;99.90
75113;DHT22;63692;47.338;8.520;2024-02-26T07:39:19;6.30;99.90
75113;DHT22;63692;47.338;8.520;2024-02-26T07:44:12;6.40;99.90
75113;DHT22;63692;47.338;8.520;2024-02-26T07:46:38;6.40;99.90
75113;DHT22;63692;47.338;8.520;2024-02-26T07:49:04;6.40;99.90
75113;DHT22;63692;47.338;8.520;2024-02-26T07:51:29;6.50;99.90
75113;DHT22;63692;47.338;8.520;2024-02-26T07:53:55;6.60;99.90
75113;DHT22;63692;47.338;8.520;2024-02-26T07:56:20;6.70;99.90
75113;DHT22;63692;47.338;8.520;2024-02-26T07:58:46;6.80;99.90
75113;DHT22;63692;47.338;8.520;2024-02-26T08:01:14;6.80;99.90
75113;DHT22;63692;47.338;8.520;2024-02-26T08:03:40;6.80;99.90
75113;DHT22;63692;47.338;8.520;2024-02-26T08:06:07;6.90;99.90
75113;DHT22;63692;47.338;8.520;2024-02-26T08:08:33;6.90;99.90
75113;DHT22;63692;47.338;8.520;2024-02-26T08:10:59;7.00;99.90
75113;DHT22;63692;47.338;8.520;2024-02-26T08:13:24;7.00;99.90
75113;DHT22;63692;47.338;8.520;2024-02-26T08:15:51;7.10;99.90
75113;DHT22;63692;47.338;8.520;2024-02-26T08:18:18;7.10;99.90
75113;DHT22;63692;47.338;8.520;2024-02-26T08:20:44;7.10;99.90
75113;DHT22;63692;47.338;8.520;2024-02-26T08:23:10;7.10;99.90
75113;DHT22;63692;47.338;8.520;2024-02-26T08:25:35;7.20;99.90
75113;DHT22;63692;47.338;8.520;2024-02-26T08:28:01;7.30;99.90
75113;DHT22;63692;47.338;8.520;2024-02-26T08:30:27;7.30;99.90
75113;DHT22;63692;47.338;8.520;2024-02-26T08:32:52;7.50;99.90
75113;DHT22;63692;47.338;8.520;2024-02-26T08:35:19;7.60;99.90
75113;DHT22;63692;47.338;8.520;2024-02-26T08:37:46;7.70;99.90
75113;DHT22;63692;47.338;8.520;2024-02-26T08:40:11;7.70;99.90
75113;DHT22;63692;47.338;8.520;2024-02-26T08:42:37;7.80;99.90
75113;DHT22;63692;47.338;8.520;2024-02-26T08:45:03;7.90;99.90
75113;DHT22;63692;47.338;8.520;2024-02-26T08:47:29;8.00;99.90
75113;DHT22;63692;47.338;8.520;2024-02-26T08:49:54;8.00;99.90
75113;DHT22;63692;47.338;8.520;2024-02-26T08:52:20;8.00;99.90
75113;DHT22;63692;47.338;8.520;2024-02-26T08:54:47;8.10;99.90
75113;DHT22;63692;47.338;8.520;2024-02-26T08:57:13;8.20;99.90
75113;DHT22;63692;47.338;8.520;2024-02-26T08:59:38;8.30;99.90
75113;DHT22;63692;47.338;8.520;2024-02-26T09:02:04;8.30;99.90
75113;DHT22;63692;47.338;8.520;2024-02-26T09:04:29;8.30;99.90
75113;DHT22;63692;47.338;8.520;2024-02-26T09:06:55;8.40;99.90
75113;DHT22;63692;47.338;8.520;2024-02-26T09:09:21;8.40;99.90
75113;DHT22;63692;47.338;8.520;2024-02-26T09:11:48;8.50;99.90
75113;DHT22;63692;47.338;8.520;2024-02-26T09:14:14;8.40;99.90
75113;DHT22;63692;47.338;8.520;2024-02-26T09:16:39;8.50;99.90
75113;DHT22;63692;47.338;8.520;2024-02-26T09:19:05;8.50;99.90
75113;DHT22;63692;47.338;8.520;2024-02-26T09:21:31;8.60;99.90
75113;DHT22;63692;47.338;8.520;2024-02-26T09:23:56;8.60;99.90
75113;DHT22;63692;47.338;8.520;2024-02-26T09:26:22;8.60;99.90
75113;DHT22;63692;47.338;8.520;2024-02-26T09:28:47;8.60;99.90
75113;DHT22;63692;47.338;8.520;2024-02-26T09:31:17;8.70;99.90
75113;DHT22;63692;47.338;8.520;2024-02-26T09:33:43;8.80;99.90
75113;DHT22;63692;47.338;8.520;2024-02-26T09:36:08;8.80;99.90
75113;DHT22;63692;47.338;8.520;2024-02-26T09:38:36;8.90;99.90
75113;DHT22;63692;47.338;8.520;2024-02-26T09:41:04;8.90;99.90
75113;DHT22;63692;47.338;8.520;2024-02-26T09:43:35;9.00;99.90
75113;DHT22;63692;47.338;8.520;2024-02-26T09:46:01;9.10;99.90
75113;DHT22;63692;47.338;8.520;2024-02-26T09:48:29;9.10;99.90
75113;DHT22;63692;47.338;8.520;2024-02-26T09:50:55;9.20;99.90
75113;DHT22;63692;47.338;8.520;2024-02-26T09:53:22;9.20;99.90
75113;DHT22;63692;47.338;8.520;2024-02-26T09:55:48;9.20;99.90
75113;DHT22;63692;47.338;8.520;2024-02-26T09:58:13;9.20;99.90
75113;DHT22;63692;47.338;8.520;2024-02-26T10:00:48;9.30;99.90
75113;DHT22;63692;47.338;8.520;2024-02-26T10:03:15;9.30;99.90
75113;DHT22;63692;47.338;8.520;2024-02-26T10:05:42;9.30;99.90
75113;DHT22;63692;47.338;8.520;2024-02-26T10:08:12;9.30;99.90
75113;DHT22;63692;47.338;8.520;2024-02-26T10:10:39;9.30;99.90
75113;DHT22;63692;47.338;8.520;2024-02-26T10:13:05;9.40;99.90
75113;DHT22;63692;47.338;8.520;2024-02-26T10:15:36;9.40;99.90
75113;DHT22;63692;47.338;8.520;2024-02-26T10:18:04;9.40;99.90
75113;DHT22;63692;47.338;8.520;2024-02-26T10:20:31;9.40;99.90
75113;DHT22;63692;47.338;8.520;2024-02-26T10:22:57;9.40;99.90
75113;DHT22;63692;47.338;8.520;2024-02-26T10:25:23;9.40;99.90
75113;DHT22;63692;47.338;8.520;2024-02-26T10:27:49;9.40;99.90
75113;DHT22;63692;47.338;8.520;2024-02-26T10:30:19;9.40;99.90
75113;DHT22;63692;47.338;8.520;2024-02-26T10:32:47;9.50;99.90
75113;DHT22;63692;47.338;8.520;2024-02-26T10:35:13;9.50;99.90
75113;DHT22;63692;47.338;8.520;2024-02-26T10:37:42;9.50;99.90
75113;DHT22;63692;47.338;8.520;2024-02-26T10:40:12;9.50;99.90
75113;DHT22;63692;47.338;8.520;2024-02-26T10:42:37;9.60;99.90
75113;DHT22;63692;47.338;8.520;2024-02-26T10:45:10;9.60;99.90
75113;DHT22;63692;47.338;8.520;2024-02-26T10:47:40;9.60;99.90
75113;DHT22;63692;47.338;8.520;2024-02-26T10:50:06;9.60;99.90
75113;DHT22;63692;47.338;8.520;2024-02-26T10:52:34;9.60;99.90
75113;DHT22;63692;47.338;8.520;2024-02-26T10:55:02;9.60;99.90
75113;DHT22;63692;47.338;8.520;2024-02-26T10:57:31;9.60;99.90
75113;DHT22;63692;47.338;8.520;2024-02-26T10:59:59;9.70;99.90
75113;DHT22;63692;47.338;8.520;2024-02-26T11:02:26;9.70;99.90
75113;DHT22;63692;47.338;8.520;2024-02-26T11:04:52;9.70;99.90
75113;DHT22;63692;47.338;8.520;2024-02-26T11:07:19;9.70;99.90
75113;DHT22;63692;47.338;8.520;2024-02-26T11:09:46;9.70;99.90
75113;DHT22;63692;47.338;8.520;2024-02-26T11:12:17;9.70;99.90
75113;DHT22;63692;47.338;8.520;2024-02-26T11:14:46;9.80;99.90
75113;DHT22;63692;47.338;8.520;2024-02-26T11:17:13;9.80;99.90
75113;DHT22;63692;47.338;8.520;2024-02-26T11:19:41;9.80;99.90
75113;DHT22;63692;47.338;8.520;2024-02-26T11:22:08;9.80;99.90
75113;DHT22;63692;47.338;8.520;2024-02-26T11:24:34;9.80;99.90
75113;DHT22;63692;47.338;8.520;2024-02-26T11:27:03;9.80;99.90
75113;DHT22;63692;47.338;8.520;2024-02-26T11:29:39;9.80;99.90
75113;DHT22;63692;47.338;8.520;2024-02-26T11:32:07;9.80;99.90
75113;DHT22;63692;47.338;8.520;2024-02-26T11:34:33;9.90;99.90
75113;DHT22;63692;47.338;8.520;2024-02-26T11:37:12;9.90;99.90
75113;DHT22;63692;47.338;8.520;2024-02-26T11:39:40;9.90;99.90
75113;DHT22;63692;47.338;8.520;2024-02-26T11:42:09;9.90;99.90
75113;DHT22;63692;47.338;8.520;2024-02-26T11:47:13;10.00;99.90
75113;DHT22;63692;47.338;8.520;2024-02-26T11:49:39;10.10;99.90
75113;DHT22;63692;47.338;8.520;2024-02-26T11:52:09;10.10;99.90
75113;DHT22;63692;47.338;8.520;2024-02-26T11:59:40;10.30;99.90
75113;DHT22;63692;47.338;8.520;2024-02-26T12:02:07;10.40;99.90
75113;DHT22;63692;47.338;8.520;2024-02-26T12:04:33;10.40;99.90
75113;DHT22;63692;47.338;8.520;2024-02-26T12:07:02;10.50;99.90
75113;DHT22;63692;47.338;8.520;2024-02-26T12:09:32;10.50;99.90
75113;DHT22;63692;47.338;8.520;2024-02-26T12:11:59;10.60;99.90
75113;DHT22;63692;47.338;8.520;2024-02-26T12:14:25;10.70;99.90
75113;DHT22;63692;47.338;8.520;2024-02-26T12:16:52;10.80;99.90
75113;DHT22;63692;47.338;8.520;2024-02-26T12:19:18;10.90;99.90
75113;DHT22;63692;47.338;8.520;2024-02-26T12:21:44;10.90;99.90
75113;DHT22;63692;47.338;8.520;2024-02-26T12:24:14;10.90;99.90
75113;DHT22;63692;47.338;8.520;2024-02-26T12:26:41;11.00;99.90
75113;DHT22;63692;47.338;8.520;2024-02-26T12:31:35;11.00;99.90
75113;DHT22;63692;47.338;8.520;2024-02-26T12:34:04;11.10;99.90
75113;DHT22;63692;47.338;8.520;2024-02-26T12:36:30;11.10;99.90
75113;DHT22;63692;47.338;8.520;2024-02-26T12:38:56;11.20;99.90
75113;DHT22;63692;47.338;8.520;2024-02-26T12:41:22;11.30;99.90
75113;DHT22;63692;47.338;8.520;2024-02-26T12:43:48;11.30;99.90
75113;DHT22;63692;47.338;8.520;2024-02-26T12:46:15;11.30;99.90
75113;DHT22;63692;47.338;8.520;2024-02-26T12:48:46;11.30;99.90
75113;DHT22;63692;47.338;8.520;2024-02-26T12:51:14;11.30;99.90
75113;DHT22;63692;47.338;8.520;2024-02-26T12:53:40;11.30;99.90
75113;DHT22;63692;47.338;8.520;2024-02-26T12:56:07;11.40;99.90
75113;DHT22;63692;47.338;8.520;2024-02-26T12:58:34;11.40;99.90
75113;DHT22;63692;47.338;8.520;2024-02-26T13:01:01;11.50;99.90
75113;DHT22;63692;47.338;8.520;2024-02-26T13:03:27;11.40;99.90
75113;DHT22;63692;47.338;8.520;2024-02-26T13:05:54;11.40;99.90
75113;DHT22;63692;47.338;8.520;2024-02-26T13:08:20;11.30;99.90
75113;DHT22;63692;47.338;8.520;2024-02-26T13:10:46;11.20;99.90
75113;DHT22;63692;47.338;8.520;2024-02-26T13:13:15;11.20;99.90
75113;DHT22;63692;47.338;8.520;2024-02-26T13:15:44;11.20;99.90
75113;DHT22;63692;47.338;8.520;2024-02-26T13:18:14;11.20;99.90
75113;DHT22;63692;47.338;8.520;2024-02-26T13:20:40;11.20;99.90
75113;DHT22;63692;47.338;8.520;2024-02-26T13:25:36;11.20;99.90
75113;DHT22;63692;47.338;8.520;2024-02-26T13:28:15;11.20;99.90
75113;DHT22;63692;47.338;8.520;2024-02-26T13:30:53;11.20;99.90
75113;DHT22;63692;47.338;8.520;2024-02-26T13:33:22;11.20;99.90
75113;DHT22;63692;47.338;8.520;2024-02-26T13:35:48;11.20;99.90
75113;DHT22;63692;47.338;8.520;2024-02-26T13:40:41;11.20;99.90
75113;DHT22;63692;47.338;8.520;2024-02-26T13:43:07;11.20;99.90
75113;DHT22;63692;47.338;8.520;2024-02-26T13:45:37;11.10;99.90
75113;DHT22;63692;47.338;8.520;2024-02-26T13:48:05;11.10;99.90
75113;DHT22;63692;47.338;8.520;2024-02-26T13:50:31;11.00;99.90
75113;DHT22;63692;47.338;8.520;2024-02-26T13:52:57;11.00;99.90
75113;DHT22;63692;47.338;8.520;2024-02-26T13:55:25;11.00;99.90
75113;DHT22;63692;47.338;8.520;2024-02-26T13:57:56;11.00;99.90
75113;DHT22;63692;47.338;8.520;2024-02-26T14:00:22;11.00;99.90
75113;DHT22;63692;47.338;8.520;2024-02-26T14:02:48;11.00;99.90
75113;DHT22;63692;47.338;8.520;2024-02-26T14:05:14;10.90;99.90
75113;DHT22;63692;47.338;8.520;2024-02-26T14:07:40;10.90;99.90
75113;DHT22;63692;47.338;8.520;2024-02-26T14:10:06;10.90;99.90
75113;DHT22;63692;47.338;8.520;2024-02-26T14:12:32;10.90;99.90
75113;DHT22;63692;47.338;8.520;2024-02-26T14:14:58;10.90;99.90
75113;DHT22;63692;47.338;8.520;2024-02-26T14:17:26;10.90;99.90
75113;DHT22;63692;47.338;8.520;2024-02-26T14:19:52;10.80;99.90
75113;DHT22;63692;47.338;8.520;2024-02-26T14:22:17;10.90;99.90
75113;DHT22;63692;47.338;8.520;2024-02-26T14:24:43;10.80;99.90
75113;DHT22;63692;47.338;8.520;2024-02-26T14:27:10;10.80;99.90
75113;DHT22;63692;47.338;8.520;2024-02-26T14:29:36;10.80;99.90
75113;DHT22;63692;47.338;8.520;2024-02-26T14:32:03;10.80;99.90
75113;DHT22;63692;47.338;8.520;2024-02-26T14:34:29;10.80;99.90
75113;DHT22;63692;47.338;8.520;2024-02-26T14:36:55;10.80;99.90
75113;DHT22;63692;47.338;8.520;2024-02-26T14:39:21;10.80;99.90
75113;DHT22;63692;47.338;8.520;2024-02-26T14:41:46;10.80;99.90
75113;DHT22;63692;47.338;8.520;2024-02-26T14:44:12;10.80;99.90
75113;DHT22;63692;47.338;8.520;2024-02-26T14:46:38;10.70;99.90
75113;DHT22;63692;47.338;8.520;2024-02-26T14:49:04;10.70;99.90
75113;DHT22;63692;47.338;8.520;2024-02-26T14:51:30;10.70;99.90
75113;DHT22;63692;47.338;8.520;2024-02-26T14:53:56;10.70;99.90
75113;DHT22;63692;47.338;8.520;2024-02-26T14:56:24;10.70;99.90
75113;DHT22;63692;47.338;8.520;2024-02-26T14:58:50;10.70;99.90
75113;DHT22;63692;47.338;8.520;2024-02-26T15:01:15;10.60;99.90
75113;DHT22;63692;47.338;8.520;2024-02-26T15:03:41;10.70;99.90
75113;DHT22;63692;47.338;8.520;2024-02-26T15:06:07;10.70;99.90
75113;DHT22;63692;47.338;8.520;2024-02-26T15:08:32;10.70;99.90
75113;DHT22;63692;47.338;8.520;2024-02-26T15:10:58;10.70;99.90
75113;DHT22;63692;47.338;8.520;2024-02-26T15:18:19;10.60;99.90
75113;DHT22;63692;47.338;8.520;2024-02-26T15:20:45;10.60;99.90
75113;DHT22;63692;47.338;8.520;2024-02-26T15:23:11;10.60;99.90
75113;DHT22;63692;47.338;8.520;2024-02-26T15:25:37;10.60;99.90
75113;DHT22;63692;47.338;8.520;2024-02-26T15:28:03;10.60;99.90
75113;DHT22;63692;47.338;8.520;2024-02-26T15:30:29;10.60;99.90
75113;DHT22;63692;47.338;8.520;2024-02-26T15:32:55;10.60;99.90
75113;DHT22;63692;47.338;8.520;2024-02-26T15:35:21;10.60;99.90
75113;DHT22;63692;47.338;8.520;2024-02-26T15:37:47;10.60;99.90
75113;DHT22;63692;47.338;8.520;2024-02-26T15:40:12;10.60;99.90
75113;DHT22;63692;47.338;8.520;2024-02-26T15:42:38;10.60;99.90
75113;DHT22;63692;47.338;8.520;2024-02-26T15:45:04;10.60;99.90
75113;DHT22;63692;47.338;8.520;2024-02-26T15:47:30;10.60;99.90
75113;DHT22;63692;47.338;8.520;2024-02-26T15:49:59;10.60;99.90
75113;DHT22;63692;47.338;8.520;2024-02-26T15:52:25;10.60;99.90
75113;DHT22;63692;47.338;8.520;2024-02-26T15:54:51;10.60;99.90
75113;DHT22;63692;47.338;8.520;2024-02-26T15:57:18;10.70;99.90
75113;DHT22;63692;47.338;8.520;2024-02-26T15:59:43;10.70;99.90
75113;DHT22;63692;47.338;8.520;2024-02-26T16:02:09;10.80;99.90
75113;DHT22;63692;47.338;8.520;2024-02-26T16:04:35;10.70;99.90
75113;DHT22;63692;47.338;8.520;2024-02-26T16:07:04;10.70;99.90
75113;DHT22;63692;47.338;8.520;2024-02-26T16:09:35;10.60;99.90
75113;DHT22;63692;47.338;8.520;2024-02-26T16:12:11;10.70;99.90
75113;DHT22;63692;47.338;8.520;2024-02-26T16:14:51;10.60;99.90
75113;DHT22;63692;47.338;8.520;2024-02-26T16:17:29;10.60;99.90
75113;DHT22;63692;47.338;8.520;2024-02-26T16:19:57;10.60;99.90
75113;DHT22;63692;47.338;8.520;2024-02-26T16:22:23;10.50;99.90
75113;DHT22;63692;47.338;8.520;2024-02-26T16:24:49;10.50;99.90
75113;DHT22;63692;47.338;8.520;2024-02-26T16:27:15;10.40;99.90
75113;DHT22;63692;47.338;8.520;2024-02-26T16:29:40;10.40;99.90
75113;DHT22;63692;47.338;8.520;2024-02-26T16:32:06;10.30;99.90
75113;DHT22;63692;47.338;8.520;2024-02-26T16:34:34;10.30;99.90
75113;DHT22;63692;47.338;8.520;2024-02-26T16:36:59;10.30;99.90
75113;DHT22;63692;47.338;8.520;2024-02-26T16:39:29;10.30;99.90
75113;DHT22;63692;47.338;8.520;2024-02-26T16:41:55;10.40;99.90
75113;DHT22;63692;47.338;8.520;2024-02-26T16:44:20;10.30;99.90
75113;DHT22;63692;47.338;8.520;2024-02-26T16:46:46;10.30;99.90
75113;DHT22;63692;47.338;8.520;2024-02-26T16:49:12;10.20;99.90
75113;DHT22;63692;47.338;8.520;2024-02-26T16:51:40;10.10;99.90
75113;DHT22;63692;47.338;8.520;2024-02-26T16:54:06;10.10;99.90
75113;DHT22;63692;47.338;8.520;2024-02-26T16:59:00;10.10;99.90
75113;DHT22;63692;47.338;8.520;2024-02-26T17:01:25;10.00;99.90
75113;DHT22;63692;47.338;8.520;2024-02-26T17:03:51;10.00;99.90
75113;DHT22;63692;47.338;8.520;2024-02-26T17:06:16;9.90;99.90
75113;DHT22;63692;47.338;8.520;2024-02-26T17:11:16;9.90;99.90
75113;DHT22;63692;47.338;8.520;2024-02-26T17:13:42;9.80;99.90
75113;DHT22;63692;47.338;8.520;2024-02-26T17:16:08;9.70;99.90
75113;DHT22;63692;47.338;8.520;2024-02-26T17:18:33;9.70;99.90
75113;DHT22;63692;47.338;8.520;2024-02-26T17:20:59;9.70;99.90
75113;DHT22;63692;47.338;8.520;2024-02-26T17:23:25;9.60;99.90
75113;DHT22;63692;47.338;8.520;2024-02-26T17:25:58;9.60;99.90
75113;DHT22;63692;47.338;8.520;2024-02-26T17:28:25;9.60;99.90
75113;DHT22;63692;47.338;8.520;2024-02-26T17:30:51;9.60;99.90
75113;DHT22;63692;47.338;8.520;2024-02-26T17:33:17;9.50;99.90
75113;DHT22;63692;47.338;8.520;2024-02-26T17:35:42;9.40;99.90
75113;DHT22;63692;47.338;8.520;2024-02-26T17:38:09;9.40;99.90
75113;DHT22;63692;47.338;8.520;2024-02-26T17:40:36;9.40;99.90
75113;DHT22;63692;47.338;8.520;2024-02-26T17:43:03;9.30;99.90
75113;DHT22;63692;47.338;8.520;2024-02-26T17:45:29;9.20;99.90
75113;DHT22;63692;47.338;8.520;2024-02-26T17:47:55;9.20;99.90
75113;DHT22;63692;47.338;8.520;2024-02-26T17:50:21;9.10;99.90
75113;DHT22;63692;47.338;8.520;2024-02-26T17:52:50;9.10;99.90
75113;DHT22;63692;47.338;8.520;2024-02-26T17:55:18;9.10;99.90
75113;DHT22;63692;47.338;8.520;2024-02-26T17:57:44;9.10;99.90
75113;DHT22;63692;47.338;8.520;2024-02-26T18:00:10;9.00;99.90
75113;DHT22;63692;47.338;8.520;2024-02-26T18:02:36;9.00;99.90
75113;DHT22;63692;47.338;8.520;2024-02-26T18:05:01;9.00;99.90
75113;DHT22;63692;47.338;8.520;2024-02-26T18:07:27;8.90;99.90
75113;DHT22;63692;47.338;8.520;2024-02-26T18:09:52;8.90;99.90
75113;DHT22;63692;47.338;8.520;2024-02-26T18:12:18;8.90;99.90
75113;DHT22;63692;47.338;8.520;2024-02-26T18:14:44;8.90;99.90
75113;DHT22;63692;47.338;8.520;2024-02-26T18:17:09;8.90;99.90
75113;DHT22;63692;47.338;8.520;2024-02-26T18:19:35;8.80;99.90
75113;DHT22;63692;47.338;8.520;2024-02-26T18:22:00;8.80;99.90
75113;DHT22;63692;47.338;8.520;2024-02-26T18:24:27;8.70;99.90
75113;DHT22;63692;47.338;8.520;2024-02-26T18:26:52;8.60;99.90
75113;DHT22;63692;47.338;8.520;2024-02-26T18:29:19;8.50;99.90
75113;DHT22;63692;47.338;8.520;2024-02-26T18:31:45;8.50;99.90
75113;DHT22;63692;47.338;8.520;2024-02-26T18:34:11;8.50;99.90
75113;DHT22;63692;47.338;8.520;2024-02-26T18:36:42;8.50;99.90
75113;DHT22;63692;47.338;8.520;2024-02-26T18:39:08;8.40;99.90
75113;DHT22;63692;47.338;8.520;2024-02-26T18:41:35;8.40;99.90
75113;DHT22;63692;47.338;8.520;2024-02-26T18:44:00;8.40;99.90
75113;DHT22;63692;47.338;8.520;2024-02-26T18:46:26;8.40;99.90
75113;DHT22;63692;47.338;8.520;2024-02-26T18:48:52;8.30;99.90
75113;DHT22;63692;47.338;8.520;2024-02-26T18:51:18;8.20;99.90
75113;DHT22;63692;47.338;8.520;2024-02-26T18:53:44;8.20;99.90
75113;DHT22;63692;47.338;8.520;2024-02-26T18:56:11;8.10;99.90
75113;DHT22;63692;47.338;8.520;2024-02-26T18:58:37;8.10;99.90
75113;DHT22;63692;47.338;8.520;2024-02-26T19:01:03;8.10;99.90
75113;DHT22;63692;47.338;8.520;2024-02-26T19:03:29;7.90;99.90
75113;DHT22;63692;47.338;8.520;2024-02-26T19:05:55;7.90;99.90
75113;DHT22;63692;47.338;8.520;2024-02-26T19:08:21;7.80;99.90
75113;DHT22;63692;47.338;8.520;2024-02-26T19:13:15;7.60;99.90
75113;DHT22;63692;47.338;8.520;2024-02-26T19:15:40;7.50;99.90
75113;DHT22;63692;47.338;8.520;2024-02-26T19:18:07;7.40;99.90
75113;DHT22;63692;47.338;8.520;2024-02-26T19:20:32;7.40;99.90
75113;DHT22;63692;47.338;8.520;2024-02-26T19:22:58;7.30;99.90
75113;DHT22;63692;47.338;8.520;2024-02-26T19:25:23;7.30;99.90
75113;DHT22;63692;47.338;8.520;2024-02-26T19:27:49;7.40;99.90
75113;DHT22;63692;47.338;8.520;2024-02-26T19:30:15;7.40;99.90
75113;DHT22;63692;47.338;8.520;2024-02-26T19:32:41;7.40;99.90
75113;DHT22;63692;47.338;8.520;2024-02-26T19:35:07;7.30;99.90
